sensor_id;sensor_type;location;lat;lon;timestamp;pressure;altitude;pressure_sealevel;temperature;humidity
23253;BME280;11795;47.054;15.408;2023-06-26T00:00:00;97490;;;19.3;71.3
23253;BME280;11795;47.054;15.408;2023-06-26T00:02:00;97490;;;19.5;70.7
23253;BME280;11795;47.054;15.408;2023-06-26T00:04:00;97490;;;19.3;71.5
23253;BME280;11795;47.054;15.408;2023-06-26T00:06:00;97480;;;19.5;71.0
23253;BME280;11795;47.054;15.408;2023-06-26T00:08:00;97490;;;19.3;71.5
23253;BME280;11795;47.054;15.408;2023-06-26T00:10:01;97490;;;19.2;72.1
23253;BME280;11795;47.054;15.408;2023-06-26T00:12:00;97490;;;19.3;71.2
23253;BME280;11795;47.054;15.408;2023-06-26T00:14:00;97490;;;19.2;71.7
23253;BME280;11795;47.054;15.408;2023-06-26T00:16:03;97490;;;19.4;71.1
23253;BME280;11795;47.054;15.408;2023-06-26T00:18:00;97490;;;19.2;71.3
23253;BME280;11795;47.054;15.408;2023-06-26T00:20:06;97490;;;19.1;71.9
23253;BME280;11795;47.054;15.408;2023-06-26T00:22:00;97490;;;19.2;71.2
23253;BME280;11795;47.054;15.408;2023-06-26T00:24:00;97490;;;19.1;71.9
23253;BME280;11795;47.054;15.408;2023-06-26T00:26:01;97480;;;19.3;71.4
23253;BME280;11795;47.054;15.408;2023-06-26T00:28:01;97480;;;19.1;71.7
23253;BME280;11795;47.054;15.408;2023-06-26T00:30:00;97490;;;18.9;72.6
23253;BME280;11795;47.054;15.408;2023-06-26T00:32:00;97490;;;19.1;71.9
23253;BME280;11795;47.054;15.408;2023-06-26T00:34:01;97480;;;18.9;72.6
23253;BME280;11795;47.054;15.408;2023-06-26T00:36:00;97480;;;19.0;72.2
23253;BME280;11795;47.054;15.408;2023-06-26T00:38:00;97480;;;19.0;72.2
23253;BME280;11795;47.054;15.408;2023-06-26T00:40:00;97480;;;18.8;73.1
23253;BME280;11795;47.054;15.408;2023-06-26T00:42:00;97480;;;19.0;72.4
23253;BME280;11795;47.054;15.408;2023-06-26T00:44:00;97480;;;18.8;72.8
23253;BME280;11795;47.054;15.408;2023-06-26T00:46:00;97470;;;18.9;72.9
23253;BME280;11795;47.054;15.408;2023-06-26T00:48:01;97470;;;18.8;73.1
23253;BME280;11795;47.054;15.408;2023-06-26T00:50:01;97470;;;18.7;73.7
23253;BME280;11795;47.054;15.408;2023-06-26T00:52:00;97470;;;18.9;72.7
23253;BME280;11795;47.054;15.408;2023-06-26T00:54:01;97470;;;18.8;73.4
23253;BME280;11795;47.054;15.408;2023-06-26T00:56:01;97470;;;18.9;73.0
23253;BME280;11795;47.054;15.408;2023-06-26T00:58:00;97470;;;18.8;73.4
23253;BME280;11795;47.054;15.408;2023-06-26T01:00:01;97470;;;18.7;74.2
23253;BME280;11795;47.054;15.408;2023-06-26T01:02:01;97470;;;18.8;73.5
23253;BME280;11795;47.054;15.408;2023-06-26T01:04:00;97470;;;18.7;73.9
23253;BME280;11795;47.054;15.408;2023-06-26T01:06:01;97470;;;18.8;73.6
23253;BME280;11795;47.054;15.408;2023-06-26T01:08:01;97470;;;18.8;73.5
23253;BME280;11795;47.054;15.408;2023-06-26T01:10:00;97470;;;18.7;73.8
23253;BME280;11795;47.054;15.408;2023-06-26T01:12:00;97470;;;18.9;73.2
23253;BME280;11795;47.054;15.408;2023-06-26T01:14:01;97470;;;18.7;73.7
23253;BME280;11795;47.054;15.408;2023-06-26T01:16:01;97460;;;18.8;73.4
23253;BME280;11795;47.054;15.408;2023-06-26T01:18:02;97460;;;18.8;73.3
23253;BME280;11795;47.054;15.408;2023-06-26T01:20:03;97470;;;18.7;73.5
23253;BME280;11795;47.054;15.408;2023-06-26T01:22:06;97460;;;18.8;73.3
23253;BME280;11795;47.054;15.408;2023-06-26T01:24:09;97460;;;18.5;74.2
23253;BME280;11795;47.054;15.408;2023-06-26T01:26:10;97460;;;18.5;74.4
23253;BME280;11795;47.054;15.408;2023-06-26T01:28:01;97460;;;18.5;74.6
23253;BME280;11795;47.054;15.408;2023-06-26T01:30:02;97460;;;18.3;75.2
23253;BME280;11795;47.054;15.408;2023-06-26T01:32:00;97450;;;18.5;74.3
23253;BME280;11795;47.054;15.408;2023-06-26T01:34:01;97450;;;18.4;74.7
23253;BME280;11795;47.054;15.408;2023-06-26T01:36:00;97440;;;18.4;74.8
23253;BME280;11795;47.054;15.408;2023-06-26T01:38:11;97440;;;18.4;74.6
23253;BME280;11795;47.054;15.408;2023-06-26T01:40:00;97440;;;18.2;75.3
23253;BME280;11795;47.054;15.408;2023-06-26T01:42:00;97440;;;18.4;74.6
23253;BME280;11795;47.054;15.408;2023-06-26T01:44:08;97440;;;18.2;75.2
23253;BME280;11795;47.054;15.408;2023-06-26T01:46:03;97430;;;18.2;75.4
23253;BME280;11795;47.054;15.408;2023-06-26T01:48:01;97440;;;18.2;75.2
23253;BME280;11795;47.054;15.408;2023-06-26T01:50:05;97430;;;18.1;75.6
23253;BME280;11795;47.054;15.408;2023-06-26T01:52:07;97430;;;18.3;74.8
23253;BME280;11795;47.054;15.408;2023-06-26T01:54:01;97430;;;18.1;75.4
23253;BME280;11795;47.054;15.408;2023-06-26T01:56:07;97430;;;18.2;75.4
23253;BME280;11795;47.054;15.408;2023-06-26T01:58:01;97430;;;18.2;75.0
23253;BME280;11795;47.054;15.408;2023-06-26T02:00:01;97430;;;18.1;75.5
23253;BME280;11795;47.054;15.408;2023-06-26T02:02:00;97430;;;18.3;74.8
23253;BME280;11795;47.054;15.408;2023-06-26T02:04:00;97430;;;18.1;75.6
23253;BME280;11795;47.054;15.408;2023-06-26T02:06:00;97430;;;18.1;75.7
23253;BME280;11795;47.054;15.408;2023-06-26T02:08:01;97430;;;18.1;75.3
23253;BME280;11795;47.054;15.408;2023-06-26T02:10:01;97420;;;18.0;75.5
23253;BME280;11795;47.054;15.408;2023-06-26T02:12:00;97430;;;18.1;74.7
23253;BME280;11795;47.054;15.408;2023-06-26T02:14:00;97430;;;18.0;75.3
23253;BME280;11795;47.054;15.408;2023-06-26T02:16:00;97430;;;17.9;75.6
23253;BME280;11795;47.054;15.408;2023-06-26T02:18:00;97430;;;18.0;75.3
23253;BME280;11795;47.054;15.408;2023-06-26T02:20:00;97420;;;17.8;75.8
23253;BME280;11795;47.054;15.408;2023-06-26T02:22:00;97420;;;18.0;75.3
23253;BME280;11795;47.054;15.408;2023-06-26T02:24:00;97430;;;17.8;76.1
23253;BME280;11795;47.054;15.408;2023-06-26T02:26:00;97420;;;17.7;76.4
23253;BME280;11795;47.054;15.408;2023-06-26T02:28:00;97420;;;17.8;76.0
23253;BME280;11795;47.054;15.408;2023-06-26T02:30:00;97420;;;17.7;76.5
23253;BME280;11795;47.054;15.408;2023-06-26T02:32:00;97420;;;17.8;75.9
23253;BME280;11795;47.054;15.408;2023-06-26T02:34:00;97420;;;17.7;76.3
23253;BME280;11795;47.054;15.408;2023-06-26T02:36:01;97420;;;17.6;76.7
23253;BME280;11795;47.054;15.408;2023-06-26T02:38:00;97420;;;17.8;76.1
23253;BME280;11795;47.054;15.408;2023-06-26T02:40:00;97430;;;17.6;76.8
23253;BME280;11795;47.054;15.408;2023-06-26T02:42:00;97430;;;17.8;76.4
23253;BME280;11795;47.054;15.408;2023-06-26T02:44:00;97430;;;17.6;77.1
23253;BME280;11795;47.054;15.408;2023-06-26T02:46:00;97430;;;17.5;77.4
23253;BME280;11795;47.054;15.408;2023-06-26T02:48:00;97430;;;17.5;77.8
23253;BME280;11795;47.054;15.408;2023-06-26T02:50:00;97420;;;17.5;78.1
23253;BME280;11795;47.054;15.408;2023-06-26T02:52:00;97430;;;17.7;77.0
23253;BME280;11795;47.054;15.408;2023-06-26T02:54:01;97420;;;17.5;77.4
23253;BME280;11795;47.054;15.408;2023-06-26T02:56:00;97420;;;17.5;77.5
23253;BME280;11795;47.054;15.408;2023-06-26T02:58:00;97420;;;17.7;76.5
23253;BME280;11795;47.054;15.408;2023-06-26T03:00:00;97420;;;17.5;77.2
23253;BME280;11795;47.054;15.408;2023-06-26T03:02:00;97420;;;17.7;76.8
23253;BME280;11795;47.054;15.408;2023-06-26T03:04:00;97420;;;17.5;77.4
23253;BME280;11795;47.054;15.408;2023-06-26T03:06:00;97420;;;17.4;77.8
23253;BME280;11795;47.054;15.408;2023-06-26T03:08:00;97420;;;17.5;77.5
23253;BME280;11795;47.054;15.408;2023-06-26T03:10:00;97420;;;17.4;77.8
23253;BME280;11795;47.054;15.408;2023-06-26T03:12:00;97420;;;17.6;77.2
23253;BME280;11795;47.054;15.408;2023-06-26T03:14:00;97420;;;17.4;77.8
23253;BME280;11795;47.054;15.408;2023-06-26T03:16:00;97420;;;17.4;78.1
23253;BME280;11795;47.054;15.408;2023-06-26T03:18:00;97420;;;17.5;77.7
23253;BME280;11795;47.054;15.408;2023-06-26T03:20:00;97430;;;17.4;78.2
23253;BME280;11795;47.054;15.408;2023-06-26T03:22:00;97430;;;17.6;77.4
23253;BME280;11795;47.054;15.408;2023-06-26T03:24:00;97420;;;17.5;77.6
23253;BME280;11795;47.054;15.408;2023-06-26T03:26:00;97430;;;17.4;78.2
23253;BME280;11795;47.054;15.408;2023-06-26T03:28:00;97430;;;17.5;77.6
23253;BME280;11795;47.054;15.408;2023-06-26T03:30:00;97430;;;17.5;78.1
23253;BME280;11795;47.054;15.408;2023-06-26T03:32:00;97430;;;17.7;77.5
23253;BME280;11795;47.054;15.408;2023-06-26T03:34:00;97430;;;17.5;78.1
23253;BME280;11795;47.054;15.408;2023-06-26T03:36:00;97430;;;17.4;78.7
23253;BME280;11795;47.054;15.408;2023-06-26T03:38:01;97430;;;17.6;78.1
23253;BME280;11795;47.054;15.408;2023-06-26T03:40:00;97430;;;17.5;79.0
23253;BME280;11795;47.054;15.408;2023-06-26T03:42:01;97430;;;17.7;78.0
23253;BME280;11795;47.054;15.408;2023-06-26T03:44:01;97430;;;17.6;78.3
23253;BME280;11795;47.054;15.408;2023-06-26T03:46:00;97430;;;17.6;78.5
23253;BME280;11795;47.054;15.408;2023-06-26T03:48:00;97430;;;17.7;77.6
23253;BME280;11795;47.054;15.408;2023-06-26T03:50:00;97430;;;17.6;78.0
23253;BME280;11795;47.054;15.408;2023-06-26T03:52:00;97420;;;17.9;77.3
23253;BME280;11795;47.054;15.408;2023-06-26T03:54:00;97420;;;17.8;77.5
23253;BME280;11795;47.054;15.408;2023-06-26T03:56:00;97420;;;17.8;77.8
23253;BME280;11795;47.054;15.408;2023-06-26T03:58:00;97420;;;17.9;77.1
23253;BME280;11795;47.054;15.408;2023-06-26T04:00:00;97420;;;17.9;77.6
23253;BME280;11795;47.054;15.408;2023-06-26T04:02:01;97420;;;18.1;77.0
23253;BME280;11795;47.054;15.408;2023-06-26T04:04:00;97420;;;18.0;77.3
23253;BME280;11795;47.054;15.408;2023-06-26T04:06:00;97420;;;17.9;78.1
23253;BME280;11795;47.054;15.408;2023-06-26T04:08:00;97430;;;18.1;77.2
23253;BME280;11795;47.054;15.408;2023-06-26T04:10:00;97430;;;18.0;77.5
23253;BME280;11795;47.054;15.408;2023-06-26T04:12:00;97430;;;18.3;76.5
23253;BME280;11795;47.054;15.408;2023-06-26T04:14:00;97430;;;18.2;76.4
23253;BME280;11795;47.054;15.408;2023-06-26T04:16:01;97430;;;18.2;76.5
23253;BME280;11795;47.054;15.408;2023-06-26T04:18:00;97430;;;18.4;75.5
23253;BME280;11795;47.054;15.408;2023-06-26T04:20:00;97430;;;18.3;75.6
23253;BME280;11795;47.054;15.408;2023-06-26T04:22:00;97430;;;18.5;75.1
23253;BME280;11795;47.054;15.408;2023-06-26T04:24:00;97430;;;18.6;74.7
23253;BME280;11795;47.054;15.408;2023-06-26T04:26:00;97430;;;18.4;75.3
23253;BME280;11795;47.054;15.408;2023-06-26T04:28:00;97430;;;18.6;75.0
23253;BME280;11795;47.054;15.408;2023-06-26T04:30:00;97430;;;18.5;75.4
23253;BME280;11795;47.054;15.408;2023-06-26T04:32:00;97430;;;18.7;74.9
23253;BME280;11795;47.054;15.408;2023-06-26T04:34:00;97430;;;18.5;76.2
23253;BME280;11795;47.054;15.408;2023-06-26T04:36:03;97430;;;18.6;76.2
23253;BME280;11795;47.054;15.408;2023-06-26T04:38:03;97430;;;18.8;74.9
23253;BME280;11795;47.054;15.408;2023-06-26T04:40:00;97430;;;18.8;74.9
23253;BME280;11795;47.054;15.408;2023-06-26T04:42:00;97440;;;19.0;74.0
23253;BME280;11795;47.054;15.408;2023-06-26T04:44:00;97430;;;19.0;73.9
23253;BME280;11795;47.054;15.408;2023-06-26T04:46:02;97440;;;19.0;73.9
23253;BME280;11795;47.054;15.408;2023-06-26T04:48:00;97430;;;19.3;72.5
23253;BME280;11795;47.054;15.408;2023-06-26T04:50:00;97440;;;19.3;72.4
23253;BME280;11795;47.054;15.408;2023-06-26T04:52:00;97440;;;19.6;71.5
23253;BME280;11795;47.054;15.408;2023-06-26T04:54:00;97440;;;19.6;70.9
23253;BME280;11795;47.054;15.408;2023-06-26T04:56:00;97440;;;19.7;70.7
23253;BME280;11795;47.054;15.408;2023-06-26T04:58:00;97430;;;20.0;69.5
23253;BME280;11795;47.054;15.408;2023-06-26T05:00:00;97430;;;20.0;68.8
23253;BME280;11795;47.054;15.408;2023-06-26T05:02:00;97430;;;20.2;68.5
23253;BME280;11795;47.054;15.408;2023-06-26T05:04:00;97430;;;20.2;68.2
23253;BME280;11795;47.054;15.408;2023-06-26T05:06:00;97430;;;20.2;68.2
23253;BME280;11795;47.054;15.408;2023-06-26T05:08:14;97430;;;20.4;67.5
23253;BME280;11795;47.054;15.408;2023-06-26T05:10:00;97430;;;20.3;67.7
23253;BME280;11795;47.054;15.408;2023-06-26T05:12:02;97430;;;20.6;67.2
23253;BME280;11795;47.054;15.408;2023-06-26T05:14:00;97430;;;20.7;67.0
23253;BME280;11795;47.054;15.408;2023-06-26T05:16:00;97430;;;20.8;66.7
23253;BME280;11795;47.054;15.408;2023-06-26T05:18:00;97430;;;20.9;64.5
23253;BME280;11795;47.054;15.408;2023-06-26T05:20:00;97430;;;20.9;65.0
23253;BME280;11795;47.054;15.408;2023-06-26T05:22:02;97420;;;21.1;64.9
23253;BME280;11795;47.054;15.408;2023-06-26T05:24:02;97430;;;21.1;63.9
23253;BME280;11795;47.054;15.408;2023-06-26T05:26:01;97420;;;21.1;64.6
23253;BME280;11795;47.054;15.408;2023-06-26T05:28:01;97420;;;21.5;64.3
23253;BME280;11795;47.054;15.408;2023-06-26T05:30:01;97420;;;21.5;63.8
23253;BME280;11795;47.054;15.408;2023-06-26T05:32:02;97420;;;21.7;62.1
23253;BME280;11795;47.054;15.408;2023-06-26T05:34:03;97420;;;21.6;62.0
23253;BME280;11795;47.054;15.408;2023-06-26T05:36:04;97420;;;21.6;62.7
23253;BME280;11795;47.054;15.408;2023-06-26T05:38:01;97420;;;21.9;62.4
23253;BME280;11795;47.054;15.408;2023-06-26T05:40:01;97420;;;21.9;62.5
23253;BME280;11795;47.054;15.408;2023-06-26T05:42:01;97420;;;22.0;61.6
23253;BME280;11795;47.054;15.408;2023-06-26T05:44:00;97420;;;22.0;62.4
23253;BME280;11795;47.054;15.408;2023-06-26T05:46:00;97430;;;22.0;62.3
23253;BME280;11795;47.054;15.408;2023-06-26T05:48:00;97420;;;22.3;61.2
23253;BME280;11795;47.054;15.408;2023-06-26T05:50:00;97420;;;22.4;61.6
23253;BME280;11795;47.054;15.408;2023-06-26T05:52:00;97420;;;22.6;61.2
23253;BME280;11795;47.054;15.408;2023-06-26T05:54:01;97420;;;22.6;59.9
23253;BME280;11795;47.054;15.408;2023-06-26T05:56:01;97420;;;22.5;58.7
23253;BME280;11795;47.054;15.408;2023-06-26T05:58:02;97430;;;22.6;58.4
23253;BME280;11795;47.054;15.408;2023-06-26T06:00:00;97430;;;22.6;59.1
23253;BME280;11795;47.054;15.408;2023-06-26T06:02:00;97420;;;22.7;58.9
23253;BME280;11795;47.054;15.408;2023-06-26T06:04:00;97430;;;22.7;58.8
23253;BME280;11795;47.054;15.408;2023-06-26T06:06:00;97430;;;22.7;58.7
23253;BME280;11795;47.054;15.408;2023-06-26T06:08:00;97420;;;22.9;57.6
23253;BME280;11795;47.054;15.408;2023-06-26T06:10:02;97420;;;22.9;58.1
23253;BME280;11795;47.054;15.408;2023-06-26T06:12:01;97420;;;23.0;57.5
23253;BME280;11795;47.054;15.408;2023-06-26T06:14:00;97420;;;23.0;57.7
23253;BME280;11795;47.054;15.408;2023-06-26T06:16:00;97420;;;23.1;58.2
23253;BME280;11795;47.054;15.408;2023-06-26T06:18:00;97420;;;23.3;57.8
23253;BME280;11795;47.054;15.408;2023-06-26T06:20:00;97420;;;23.3;58.6
23253;BME280;11795;47.054;15.408;2023-06-26T06:22:00;97420;;;23.5;58.5
23253;BME280;11795;47.054;15.408;2023-06-26T06:24:01;97430;;;23.7;57.8
23253;BME280;11795;47.054;15.408;2023-06-26T06:26:00;97430;;;23.7;57.2
23253;BME280;11795;47.054;15.408;2023-06-26T06:28:00;97420;;;24.0;55.8
23253;BME280;11795;47.054;15.408;2023-06-26T06:30:00;97420;;;23.9;53.5
23253;BME280;11795;47.054;15.408;2023-06-26T06:32:00;97420;;;23.9;54.2
23253;BME280;11795;47.054;15.408;2023-06-26T06:34:00;97420;;;24.0;54.9
23253;BME280;11795;47.054;15.408;2023-06-26T06:36:00;97420;;;24.1;54.9
23253;BME280;11795;47.054;15.408;2023-06-26T06:38:00;97410;;;24.4;53.8
23253;BME280;11795;47.054;15.408;2023-06-26T06:40:00;97410;;;24.4;53.8
23253;BME280;11795;47.054;15.408;2023-06-26T06:42:00;97410;;;24.5;53.6
23253;BME280;11795;47.054;15.408;2023-06-26T06:44:00;97410;;;24.7;52.8
23253;BME280;11795;47.054;15.408;2023-06-26T06:46:00;97410;;;24.7;52.0
23253;BME280;11795;47.054;15.408;2023-06-26T06:48:00;97410;;;25.0;50.3
23253;BME280;11795;47.054;15.408;2023-06-26T06:50:08;97410;;;24.9;50.4
23253;BME280;11795;47.054;15.408;2023-06-26T06:52:00;97410;;;24.9;50.3
23253;BME280;11795;47.054;15.408;2023-06-26T06:54:01;97410;;;25.0;49.5
23253;BME280;11795;47.054;15.408;2023-06-26T06:56:00;97410;;;25.0;49.5
23253;BME280;11795;47.054;15.408;2023-06-26T06:58:00;97410;;;25.2;49.1
23253;BME280;11795;47.054;15.408;2023-06-26T07:00:00;97410;;;25.2;49.5
23253;BME280;11795;47.054;15.408;2023-06-26T07:02:00;97410;;;25.2;50.3
23253;BME280;11795;47.054;15.408;2023-06-26T07:04:00;97410;;;25.4;49.4
23253;BME280;11795;47.054;15.408;2023-06-26T07:06:01;97410;;;25.4;49.0
23253;BME280;11795;47.054;15.408;2023-06-26T07:08:00;97410;;;25.7;48.7
23253;BME280;11795;47.054;15.408;2023-06-26T07:10:03;97400;;;25.5;48.6
23253;BME280;11795;47.054;15.408;2023-06-26T07:12:01;97410;;;25.6;48.8
23253;BME280;11795;47.054;15.408;2023-06-26T07:14:00;97400;;;25.8;47.9
23253;BME280;11795;47.054;15.408;2023-06-26T07:16:00;97410;;;25.7;47.8
23253;BME280;11795;47.054;15.408;2023-06-26T07:18:00;97410;;;25.9;47.5
23253;BME280;11795;47.054;15.408;2023-06-26T07:20:01;97410;;;25.9;48.1
23253;BME280;11795;47.054;15.408;2023-06-26T07:22:00;97410;;;26.0;48.2
23253;BME280;11795;47.054;15.408;2023-06-26T07:24:00;97410;;;26.1;47.7
23253;BME280;11795;47.054;15.408;2023-06-26T07:26:00;97410;;;26.2;46.3
23253;BME280;11795;47.054;15.408;2023-06-26T07:28:01;97410;;;26.5;46.7
23253;BME280;11795;47.054;15.408;2023-06-26T07:30:00;97410;;;26.5;45.6
23253;BME280;11795;47.054;15.408;2023-06-26T07:32:00;97400;;;26.5;46.2
23253;BME280;11795;47.054;15.408;2023-06-26T07:34:00;97400;;;26.6;45.3
23253;BME280;11795;47.054;15.408;2023-06-26T07:36:00;97410;;;26.6;45.3
23253;BME280;11795;47.054;15.408;2023-06-26T07:38:01;97400;;;26.7;43.7
23253;BME280;11795;47.054;15.408;2023-06-26T07:40:00;97400;;;26.6;43.8
23253;BME280;11795;47.054;15.408;2023-06-26T07:42:00;97400;;;26.5;44.3
23253;BME280;11795;47.054;15.408;2023-06-26T07:44:00;97400;;;26.7;44.4
23253;BME280;11795;47.054;15.408;2023-06-26T07:46:00;97410;;;26.7;45.0
23253;BME280;11795;47.054;15.408;2023-06-26T07:48:00;97410;;;26.9;43.6
23253;BME280;11795;47.054;15.408;2023-06-26T07:50:00;97410;;;26.9;44.7
23253;BME280;11795;47.054;15.408;2023-06-26T07:52:00;97410;;;27.1;44.9
23253;BME280;11795;47.054;15.408;2023-06-26T07:54:00;97410;;;27.4;43.7
23253;BME280;11795;47.054;15.408;2023-06-26T07:56:00;97410;;;27.5;42.7
23253;BME280;11795;47.054;15.408;2023-06-26T07:58:01;97410;;;27.5;40.4
23253;BME280;11795;47.054;15.408;2023-06-26T08:00:00;97410;;;27.4;41.1
23253;BME280;11795;47.054;15.408;2023-06-26T08:02:01;97400;;;27.5;42.1
23253;BME280;11795;47.054;15.408;2023-06-26T08:04:00;97400;;;27.8;42.7
23253;BME280;11795;47.054;15.408;2023-06-26T08:06:00;97400;;;27.9;42.2
23253;BME280;11795;47.054;15.408;2023-06-26T08:08:02;97400;;;28.0;41.5
23253;BME280;11795;47.054;15.408;2023-06-26T08:10:00;97400;;;27.8;42.1
23253;BME280;11795;47.054;15.408;2023-06-26T08:12:00;97400;;;27.8;42.1
23253;BME280;11795;47.054;15.408;2023-06-26T08:14:00;97400;;;27.6;42.1
23253;BME280;11795;47.054;15.408;2023-06-26T08:16:00;97400;;;27.4;42.6
23253;BME280;11795;47.054;15.408;2023-06-26T08:18:00;97400;;;27.3;42.2
23253;BME280;11795;47.054;15.408;2023-06-26T08:20:00;97400;;;27.1;42.3
23253;BME280;11795;47.054;15.408;2023-06-26T08:22:00;97400;;;27.1;43.1
23253;BME280;11795;47.054;15.408;2023-06-26T08:24:00;97400;;;27.4;43.1
23253;BME280;11795;47.054;15.408;2023-06-26T08:26:00;97400;;;27.5;42.3
23253;BME280;11795;47.054;15.408;2023-06-26T08:28:00;97400;;;27.9;42.2
23253;BME280;11795;47.054;15.408;2023-06-26T08:30:00;97400;;;27.8;41.8
23253;BME280;11795;47.054;15.408;2023-06-26T08:32:02;97400;;;27.7;42.4
23253;BME280;11795;47.054;15.408;2023-06-26T08:34:00;97400;;;27.7;41.9
23253;BME280;11795;47.054;15.408;2023-06-26T08:36:00;97400;;;27.6;41.9
23253;BME280;11795;47.054;15.408;2023-06-26T08:38:00;97390;;;27.7;41.5
23253;BME280;11795;47.054;15.408;2023-06-26T08:40:00;97400;;;27.8;41.7
23253;BME280;11795;47.054;15.408;2023-06-26T08:42:00;97400;;;27.8;42.1
23253;BME280;11795;47.054;15.408;2023-06-26T08:44:01;97390;;;28.1;42.5
23253;BME280;11795;47.054;15.408;2023-06-26T08:46:01;97390;;;28.3;42.1
23253;BME280;11795;47.054;15.408;2023-06-26T08:48:01;97390;;;28.6;40.4
23253;BME280;11795;47.054;15.408;2023-06-26T08:50:06;97390;;;28.4;40.5
23253;BME280;11795;47.054;15.408;2023-06-26T08:52:03;97390;;;28.4;40.7
23253;BME280;11795;47.054;15.408;2023-06-26T08:54:01;97390;;;28.6;40.8
23253;BME280;11795;47.054;15.408;2023-06-26T08:56:01;97380;;;28.6;41.5
23253;BME280;11795;47.054;15.408;2023-06-26T08:58:01;97380;;;28.9;39.8
23253;BME280;11795;47.054;15.408;2023-06-26T09:00:01;97380;;;28.8;39.4
23253;BME280;11795;47.054;15.408;2023-06-26T09:02:01;97380;;;28.8;40.5
23253;BME280;11795;47.054;15.408;2023-06-26T09:04:00;97380;;;28.8;39.4
23253;BME280;11795;47.054;15.408;2023-06-26T09:06:00;97380;;;28.8;40.1
23253;BME280;11795;47.054;15.408;2023-06-26T09:08:00;97380;;;28.9;39.8
23253;BME280;11795;47.054;15.408;2023-06-26T09:10:00;97370;;;29.0;39.4
23253;BME280;11795;47.054;15.408;2023-06-26T09:12:01;97370;;;28.9;37.9
23253;BME280;11795;47.054;15.408;2023-06-26T09:14:00;97370;;;29.1;38.9
23253;BME280;11795;47.054;15.408;2023-06-26T09:16:04;97360;;;29.1;40.1
23253;BME280;11795;47.054;15.408;2023-06-26T09:18:00;97360;;;29.2;38.4
23253;BME280;11795;47.054;15.408;2023-06-26T09:20:00;97360;;;29.4;38.9
23253;BME280;11795;47.054;15.408;2023-06-26T09:22:00;97350;;;29.6;38.6
23253;BME280;11795;47.054;15.408;2023-06-26T09:24:00;97350;;;29.9;37.4
23253;BME280;11795;47.054;15.408;2023-06-26T09:26:02;97360;;;29.9;38.8
23253;BME280;11795;47.054;15.408;2023-06-26T09:28:00;97350;;;30.0;38.4
23253;BME280;11795;47.054;15.408;2023-06-26T09:30:02;97350;;;29.8;39.1
23253;BME280;11795;47.054;15.408;2023-06-26T09:32:00;97350;;;29.6;39.6
23253;BME280;11795;47.054;15.408;2023-06-26T09:34:00;97350;;;29.5;39.5
23253;BME280;11795;47.054;15.408;2023-06-26T09:36:01;97350;;;29.1;39.1
23253;BME280;11795;47.054;15.408;2023-06-26T09:38:01;97350;;;29.1;38.0
23253;BME280;11795;47.054;15.408;2023-06-26T09:40:00;97350;;;29.1;38.8
23253;BME280;11795;47.054;15.408;2023-06-26T09:42:03;97350;;;29.2;39.0
23253;BME280;11795;47.054;15.408;2023-06-26T09:44:02;97340;;;29.4;39.0
23253;BME280;11795;47.054;15.408;2023-06-26T09:46:01;97340;;;29.5;40.5
23253;BME280;11795;47.054;15.408;2023-06-26T09:48:01;97340;;;29.6;40.1
23253;BME280;11795;47.054;15.408;2023-06-26T09:50:02;97340;;;29.5;39.3
23253;BME280;11795;47.054;15.408;2023-06-26T09:52:01;97340;;;29.2;38.7
23253;BME280;11795;47.054;15.408;2023-06-26T09:54:01;97340;;;29.0;39.0
23253;BME280;11795;47.054;15.408;2023-06-26T09:56:05;97340;;;29.2;39.2
23253;BME280;11795;47.054;15.408;2023-06-26T09:58:02;97330;;;29.4;38.0
23253;BME280;11795;47.054;15.408;2023-06-26T10:00:01;97330;;;29.6;37.3
23253;BME280;11795;47.054;15.408;2023-06-26T10:02:01;97320;;;29.6;37.3
23253;BME280;11795;47.054;15.408;2023-06-26T10:04:00;97320;;;29.8;38.6
23253;BME280;11795;47.054;15.408;2023-06-26T10:06:02;97320;;;30.0;38.4
23253;BME280;11795;47.054;15.408;2023-06-26T10:08:01;97320;;;30.2;36.3
23253;BME280;11795;47.054;15.408;2023-06-26T10:10:02;97320;;;30.3;34.2
23253;BME280;11795;47.054;15.408;2023-06-26T10:12:02;97320;;;30.3;36.9
23253;BME280;11795;47.054;15.408;2023-06-26T10:14:03;97320;;;30.4;37.9
23253;BME280;11795;47.054;15.408;2023-06-26T10:16:01;97320;;;30.4;38.6
23253;BME280;11795;47.054;15.408;2023-06-26T10:18:01;97320;;;30.1;37.7
23253;BME280;11795;47.054;15.408;2023-06-26T10:20:02;97320;;;29.8;38.7
23253;BME280;11795;47.054;15.408;2023-06-26T10:22:01;97320;;;29.5;39.2
23253;BME280;11795;47.054;15.408;2023-06-26T10:24:03;97320;;;29.7;38.8
23253;BME280;11795;47.054;15.408;2023-06-26T10:26:01;97320;;;29.6;39.4
23253;BME280;11795;47.054;15.408;2023-06-26T10:28:02;97320;;;29.8;39.7
23253;BME280;11795;47.054;15.408;2023-06-26T10:30:03;97310;;;30.1;38.4
23253;BME280;11795;47.054;15.408;2023-06-26T10:32:02;97310;;;30.1;38.3
23253;BME280;11795;47.054;15.408;2023-06-26T10:34:01;97310;;;30.0;37.3
23253;BME280;11795;47.054;15.408;2023-06-26T10:36:12;97310;;;29.2;38.5
23253;BME280;11795;47.054;15.408;2023-06-26T10:38:01;97310;;;29.1;39.3
23253;BME280;11795;47.054;15.408;2023-06-26T10:40:00;97310;;;29.6;39.2
23253;BME280;11795;47.054;15.408;2023-06-26T10:42:08;97310;;;29.6;38.6
23253;BME280;11795;47.054;15.408;2023-06-26T10:44:09;97310;;;29.6;38.4
23253;BME280;11795;47.054;15.408;2023-06-26T10:46:00;97300;;;29.3;38.3
23253;BME280;11795;47.054;15.408;2023-06-26T10:48:00;97300;;;29.0;39.2
23253;BME280;11795;47.054;15.408;2023-06-26T10:50:18;97310;;;29.0;39.7
23253;BME280;11795;47.054;15.408;2023-06-26T10:52:01;97300;;;28.9;40.2
23253;BME280;11795;47.054;15.408;2023-06-26T10:54:00;97310;;;29.0;40.1
23253;BME280;11795;47.054;15.408;2023-06-26T10:56:01;97310;;;28.8;40.2
23253;BME280;11795;47.054;15.408;2023-06-26T10:58:02;97300;;;28.8;40.7
23253;BME280;11795;47.054;15.408;2023-06-26T11:00:08;97300;;;29.1;40.4
23253;BME280;11795;47.054;15.408;2023-06-26T11:02:02;97300;;;29.1;40.2
23253;BME280;11795;47.054;15.408;2023-06-26T11:04:05;97310;;;29.2;39.2
23253;BME280;11795;47.054;15.408;2023-06-26T11:06:09;97300;;;28.8;40.8
23253;BME280;11795;47.054;15.408;2023-06-26T11:08:04;97300;;;29.0;39.5
23253;BME280;11795;47.054;15.408;2023-06-26T11:10:02;97300;;;29.2;39.3